KPIH/PIH METAR and TAF weather

Enter ICAO airport designator
Station Type Date Time Source
KPIH METAR 2019/10/18 10:53 UTC NOAA

KPIH 181053Z AUTO 22010KT 10SM CLR 03/M02 A2992 RMK AO2 SLP123 T00281017


Station Type Date Time Source
KPIH Decoded METAR 2019/10/18 10:53 UTC NOAA

POCATELLO REGIONAL AIRPORT, ID, United States (KPIH) 42-55N 112-36W 1359M
Oct 18, 2019 - 06:53 AM EDT / 2019.10.18 1053 UTC
Wind: from the SW (220 degrees) at 12 MPH (10 KT):0
Visibility: 10 mile(s):0
Sky conditions: clear
Temperature: 37.0 F (2.8 C)
Dew Point: 28.9 F (-1.7 C)
Relative Humidity: 72%
Pressure (altimeter): 29.92 in. Hg (1013 hPa)
ob: KPIH 181053Z AUTO 22010KT 10SM CLR 03/M02 A2992 RMK AO2 SLP123 T00281017
cycle: 11

Station Type Date Time Source
KPIH TAF 2019/10/18 12:33 UTC NOAA

TAF KPIH 181130Z 1812/1912 22010KT P6SM FEW050
FM181600 23016G26KT P6SM FEW050
FM181900 24023G35KT P6SM FEW050
FM190300 21010KT P6SM SCT050

Example: see airport list